»·PEaware :: N172SL KVNY-L35

N172SL :: KVNY-L35

FLIGHT INFORMATION

Flight Status: Arrived
Operator: Privately registered:
United States
More flights under this callsign
Pilot: Steve L. (17268)
Aircraft: CESSNA 172 SKYHAWK
(C172)
More flights by this aircraft type
Origin: KVNY Van Nuys
United States
Destination: L35 Big Bear City
United States
More flights between these airports :: More routes between these airports
Route: +
File this flight plan on PilotEdge
Remarks:
Altitude:
(Current/Filed)
0ft
Speed:
(Current/Filed)
0kts
Departed: 23-Dec-17 02:24 PM
Arrived: 23-Dec-17 03:32 PM
Distance/Time
Traveled:
63nm/1:08
Distance/Time
To Go:
Arrived

Flight Plot

Page will automatically refresh every two minutes.

Flight plan parsing failed; only flown route is shown


Map Options




Map Legend


Flown Route
Filed Route
Departure Airport
Arrival Airport
Navaid (VOR, NDB)
Fix

Horizontal Profiles

Position Reports

Time Latitude Longitude Heading Altitude Ground
Speed
23-Dec-17 14:24 34.203541 -118.491320 36 762ft 0kts
23-Dec-17 14:25 34.203541 -118.491320 36 762ft 0kts
23-Dec-17 14:26 34.203541 -118.491320 36 762ft 0kts
23-Dec-17 14:27 34.208984 -118.491457 353 776ft 34kts
23-Dec-17 14:28 34.215873 -118.492169 356 794ft 18kts
23-Dec-17 14:29 34.218674 -118.492182 59 798ft 0kts
23-Dec-17 14:30 34.205732 -118.490112 174 1165ft 72kts
23-Dec-17 14:31 34.183561 -118.486059 172 2061ft 80kts
23-Dec-17 14:32 34.163892 -118.481471 154 2728ft 89kts
23-Dec-17 14:33 34.153883 -118.452326 98 3802ft 82kts
23-Dec-17 14:34 34.148215 -118.425997 86 4679ft 79kts
23-Dec-17 14:35 34.149157 -118.403461 90 5342ft 82kts
23-Dec-17 14:36 34.148144 -118.371416 94 6238ft 82kts
23-Dec-17 14:37 34.144845 -118.348558 110 6838ft 84kts
23-Dec-17 14:38 34.142692 -118.320905 111 7507ft 86kts
23-Dec-17 14:39 34.141658 -118.318460 123 7565ft 86kts
23-Dec-17 14:44 34.203541 -118.491320 36 762ft 0kts
23-Dec-17 14:45 34.203541 -118.491320 36 762ft 0kts
23-Dec-17 14:46 34.205698 -118.491135 355 769ft 23kts
23-Dec-17 14:47 34.213244 -118.491834 353 788ft 28kts
23-Dec-17 14:48 34.218659 -118.492196 60 798ft 3kts
23-Dec-17 14:49 34.218666 -118.492178 63 798ft 2kts
23-Dec-17 14:50 34.206518 -118.490367 174 1129ft 74kts
23-Dec-17 14:51 34.184609 -118.487372 176 1967ft 84kts
23-Dec-17 14:52 34.161240 -118.484396 173 2846ft 87kts
23-Dec-17 14:53 34.137558 -118.481199 173 3708ft 86kts
23-Dec-17 14:54 34.119005 -118.468440 90 4470ft 86kts
23-Dec-17 14:55 34.120151 -118.439357 83 5235ft 86kts
23-Dec-17 14:56 34.123731 -118.410340 81 5942ft 88kts
23-Dec-17 14:57 34.128141 -118.381063 81 6614ft 89kts
23-Dec-17 14:58 34.132463 -118.351437 83 7265ft 89kts
23-Dec-17 14:59 34.134202 -118.321685 90 7952ft 87kts
23-Dec-17 15:00 34.137425 -118.292825 69 8584ft 88kts
23-Dec-17 15:01 34.141192 -118.264133 82 9191ft 88kts
23-Dec-17 15:02 34.145794 -118.234371 73 9754ft 90kts
23-Dec-17 15:03 34.149491 -118.204393 78 10296ft 90kts
23-Dec-17 15:04 34.155136 -118.174555 75 10804ft 92kts
23-Dec-17 15:05 34.160472 -118.143818 77 11215ft 101kts
23-Dec-17 15:06 34.168402 -118.108852 74 11380ft 117kts
23-Dec-17 15:07 34.176589 -118.069312 76 11368ft 124kts
23-Dec-17 15:08 34.181698 -118.028245 82 11372ft 124kts
23-Dec-17 15:09 34.187617 -117.987120 84 11366ft 125kts
23-Dec-17 15:10 34.190894 -117.945559 86 11362ft 124kts
23-Dec-17 15:11 34.192442 -117.920320 85 11357ft 124kts
23-Dec-17 15:12 34.198964 -117.879211 87 11323ft 123kts
23-Dec-17 15:13 34.199995 -117.837452 88 11321ft 124kts
23-Dec-17 15:14 34.200623 -117.795506 89 11343ft 124kts
23-Dec-17 15:15 34.200632 -117.753650 90 11364ft 125kts
23-Dec-17 15:16 34.200555 -117.711764 91 11364ft 124kts
23-Dec-17 15:17 34.198723 -117.669883 90 11398ft 124kts
23-Dec-17 15:18 34.202209 -117.627804 78 11351ft 128kts
23-Dec-17 15:19 34.209726 -117.586133 75 11333ft 127kts
23-Dec-17 15:20 34.213813 -117.544018 83 11304ft 126kts
23-Dec-17 15:21 34.217579 -117.502696 78 11330ft 124kts
23-Dec-17 15:22 34.222469 -117.461532 81 11328ft 124kts
23-Dec-17 15:23 34.225921 -117.419892 84 11361ft 124kts
23-Dec-17 15:24 34.228581 -117.378675 86 11295ft 123kts
23-Dec-17 15:25 34.230812 -117.339159 86 11218ft 122kts
23-Dec-17 15:26 34.232314 -117.298501 87 11256ft 118kts
23-Dec-17 15:27 34.230541 -117.259082 100 11409ft 118kts
23-Dec-17 15:28 34.229653 -117.219180 84 11479ft 120kts
23-Dec-17 15:29 34.236791 -117.179574 75 11533ft 122kts
23-Dec-17 15:30 34.245818 -117.139294 77 11506ft 125kts
23-Dec-17 15:31 34.253456 -117.095984 81 10814ft 135kts
23-Dec-17 15:32 34.258567 -117.050960 80 10013ft 134kts
23-Dec-17 15:33 34.262943 -117.007518 83 9668ft 133kts
23-Dec-17 15:34 34.263354 -116.964329 91 8766ft 118kts
23-Dec-17 15:35 34.262985 -116.932032 88 8277ft 88kts
23-Dec-17 15:36 34.263628 -116.902784 88 7634ft 86kts
23-Dec-17 15:37 34.263725 -116.876345 91 7054ft 80kts
23-Dec-17 15:38 34.263261 -116.858981 122 6752ft 7kts
23-Dec-17 15:39 34.263251 -116.853939 91 6752ft 22kts
23-Dec-17 15:40 34.263270 -116.847074 88 6752ft 8kts
23-Dec-17 15:41 34.263423 -116.846458 8 6752ft 2kts
23-Dec-17 15:42 34.263804 -116.863218 269 6966ft 84kts
23-Dec-17 15:43 34.264737 -116.890347 273 7723ft 80kts
23-Dec-17 15:44 34.263513 -116.919847 251 8213ft 100kts
23-Dec-17 15:45 34.255567 -116.952552 291 8602ft 112kts
23-Dec-17 15:46 34.266838 -116.985871 270 9043ft 108kts
23-Dec-17 15:47 34.264224 -117.022746 251 9308ft 118kts
23-Dec-17 15:48 34.253774 -117.061907 252 9339ft 125kts
23-Dec-17 15:49 34.242399 -117.102458 249 9312ft 127kts
23-Dec-17 15:50 34.230557 -117.142693 250 9299ft 127kts
23-Dec-17 15:51 34.218203 -117.184762 252 8410ft 139kts
23-Dec-17 15:52 34.208350 -117.225604 254 8208ft 130kts

Navigation Log

Ident Type
Flight plan parsing failed, navigation log unavailable